KRKR/RKR METAR and TAF weather

Enter ICAO airport designator
Station Type Date Time Source
KRKR METAR 2021/05/10 02:35 UTC NOAA

KRKR 100235Z AUTO 35006KT 10SM OVC020 14/10 A2997 RMK AO2


Station Type Date Time Source
KRKR Decoded METAR 2021/05/10 02:35 UTC NOAA

Poteau, Robert S Kerr Airport, OK, United States (KRKR) 35-01-18N 094-37-17W
May 09, 2021 - 10:35 PM EDT / 2021.05.10 0235 UTC
Wind: from the N (350 degrees) at 7 MPH (6 KT):0
Visibility: 10 mile(s):0
Sky conditions: overcast
Temperature: 57 F (14 C)
Dew Point: 50 F (10 C)
Relative Humidity: 76%
Pressure (altimeter): 29.97 in. Hg (1014 hPa)
ob: KRKR 100235Z AUTO 35006KT 10SM OVC020 14/10 A2997 RMK AO2
cycle: 2

Station Type Date Time Source
KRKR TAF UTC NOAA

Error!

Example: see airport list